createdAt,value
2024-04-30T00:01:34.863Z,75.75
2024-04-30T00:04:12.360Z,76.42
2024-04-30T00:06:42.948Z,76.09
2024-04-30T00:09:09.872Z,74.72
2024-04-30T00:11:40.911Z,74.91
2024-04-30T00:14:18.185Z,74.46
2024-04-30T00:16:45.896Z,73.74
2024-04-30T00:19:12.689Z,74.59
2024-04-30T00:21:40.183Z,74.48
2024-04-30T00:24:07.396Z,75.14
2024-04-30T00:26:34.358Z,74.78
2024-04-30T00:29:01.341Z,73.60
2024-04-30T00:31:28.439Z,73.48
2024-04-30T00:33:55.284Z,73.29
2024-04-30T00:36:24.922Z,73.01
2024-04-30T00:38:51.758Z,71.73
2024-04-30T00:41:18.494Z,72.66
2024-04-30T00:43:45.334Z,72.61
2024-04-30T00:46:15.281Z,73.34
2024-04-30T00:48:44.398Z,74.10
2024-04-30T00:51:12.459Z,74.46
2024-04-30T00:53:43.476Z,73.92
2024-04-30T00:56:10.884Z,74.50
2024-04-30T00:58:37.797Z,74.29
2024-04-30T01:01:05.071Z,73.54
2024-04-30T01:04:22.058Z,74.10
2024-04-30T01:06:48.863Z,73.75
2024-04-30T01:09:15.733Z,73.84
2024-04-30T01:11:43.883Z,74.62
2024-04-30T01:14:10.692Z,73.85
2024-04-30T01:16:37.544Z,73.77
2024-04-30T01:19:04.316Z,73.50
2024-04-30T01:21:31.077Z,75.08
2024-04-30T01:23:57.983Z,77.65
2024-04-30T01:26:40.182Z,76.91
2024-04-30T01:29:07.046Z,77.66
2024-04-30T01:31:35.823Z,77.13
2024-04-30T01:34:02.605Z,77.73
2024-04-30T01:36:29.405Z,77.73
2024-04-30T01:38:56.082Z,76.65
2024-04-30T01:41:23.018Z,76.96
2024-04-30T01:43:51.764Z,75.98
2024-04-30T01:46:18.617Z,76.95
2024-04-30T01:48:45.403Z,77.26
2024-04-30T01:51:12.190Z,76.86
2024-04-30T01:53:45.192Z,75.84
2024-04-30T01:56:12.029Z,75.50
2024-04-30T01:58:38.800Z,75.02
2024-04-30T02:01:05.658Z,75.54
2024-04-30T02:03:32.573Z,77.28
2024-04-30T02:06:06.757Z,76.97
2024-04-30T02:08:33.523Z,76.39
2024-04-30T02:11:00.490Z,76.41
2024-04-30T02:13:27.298Z,76.91
2024-04-30T02:15:54.341Z,75.28
2024-04-30T02:18:44.958Z,75.04
2024-04-30T02:21:11.778Z,74.22
2024-04-30T02:23:38.436Z,73.77
2024-04-30T02:26:05.668Z,74.46
2024-04-30T02:28:32.549Z,74.98
2024-04-30T02:31:17.996Z,74.71
2024-04-30T02:34:04.590Z,74.64
2024-04-30T02:36:31.275Z,76.32
2024-04-30T02:38:58.074Z,75.68
2024-04-30T02:41:24.765Z,76.78
2024-04-30T02:43:51.559Z,77.13
2024-04-30T02:46:18.794Z,78.01
2024-04-30T02:48:45.548Z,77.94
2024-04-30T02:51:12.393Z,78.59
2024-04-30T02:53:39.142Z,78.22
2024-04-30T02:56:06.188Z,77.52
2024-04-30T02:58:33.097Z,78.08
2024-04-30T03:01:13.409Z,77.24
2024-04-30T03:03:40.922Z,78.12
2024-04-30T03:06:08.092Z,77.80
2024-04-30T03:08:37.909Z,77.16
2024-04-30T03:11:05.586Z,76.71
2024-04-30T03:13:32.478Z,77.02
2024-04-30T03:15:59.383Z,75.91
2024-04-30T03:18:26.359Z,75.92
2024-04-30T03:20:53.320Z,77.91
2024-04-30T03:23:20.220Z,78.91
2024-04-30T03:25:46.934Z,77.32
2024-04-30T03:28:13.835Z,78.23
2024-04-30T03:30:41.021Z,77.62
2024-04-30T03:33:08.184Z,76.47
2024-04-30T03:35:39.627Z,77.39
2024-04-30T03:38:06.583Z,78.26
2024-04-30T03:40:34.739Z,78.00
2024-04-30T03:43:01.687Z,77.74
2024-04-30T03:45:28.627Z,78.05
2024-04-30T03:47:55.562Z,77.72
2024-04-30T03:50:22.600Z,77.74
2024-04-30T03:52:49.598Z,76.52
2024-04-30T03:55:16.660Z,75.86
2024-04-30T03:57:47.148Z,76.10
2024-04-30T04:00:17.350Z,75.95
2024-04-30T04:02:52.830Z,76.39
2024-04-30T04:05:35.414Z,75.88
2024-04-30T04:08:02.612Z,75.25
2024-04-30T04:10:30.630Z,75.38
2024-04-30T04:13:19.424Z,75.58
2024-04-30T04:15:49.283Z,75.98
2024-04-30T04:18:31.666Z,78.41
2024-04-30T04:20:58.614Z,80.23
2024-04-30T04:23:29.567Z,80.49
2024-04-30T04:25:59.982Z,79.46
2024-04-30T04:28:29.730Z,77.51
2024-04-30T04:30:56.518Z,78.25
2024-04-30T04:33:34.585Z,79.36
2024-04-30T04:36:04.775Z,79.80
2024-04-30T04:38:42.928Z,79.30
2024-04-30T04:41:13.009Z,78.48
2024-04-30T04:43:45.602Z,78.49
2024-04-30T04:46:12.689Z,77.79
2024-04-30T04:48:44.761Z,78.55
2024-04-30T04:51:11.948Z,77.71
2024-04-30T04:53:43.704Z,78.09
2024-04-30T04:56:25.192Z,77.80
2024-04-30T04:58:55.429Z,78.20
2024-04-30T05:01:52.116Z,78.93
2024-04-30T05:04:21.866Z,78.61
2024-04-30T05:06:55.516Z,78.61
2024-04-30T05:09:28.751Z,79.00
2024-04-30T05:11:56.113Z,79.31
2024-04-30T05:14:55.924Z,78.91
2024-04-30T05:17:27.060Z,77.87
2024-04-30T05:20:06.359Z,77.89
2024-04-30T05:22:47.489Z,78.20
2024-04-30T05:25:20.790Z,77.36
2024-04-30T05:28:15.474Z,75.81
2024-04-30T05:30:42.510Z,75.99
2024-04-30T05:33:18.102Z,76.33
2024-04-30T05:35:45.118Z,77.31
2024-04-30T05:38:14.476Z,77.54
2024-04-30T05:41:38.317Z,75.05
2024-04-30T05:44:12.717Z,72.18
2024-04-30T05:46:55.554Z,70.34
2024-04-30T05:49:22.694Z,69.44
2024-04-30T05:51:55.047Z,68.20
2024-04-30T05:54:27.625Z,68.19
2024-04-30T05:56:58.064Z,67.18
2024-04-30T06:00:18.507Z,66.41
2024-04-30T06:02:45.500Z,65.94
2024-04-30T06:05:19.669Z,65.72
2024-04-30T06:08:45.636Z,64.88
2024-04-30T06:11:12.612Z,64.76
2024-04-30T06:13:41.561Z,63.73
2024-04-30T06:16:08.461Z,63.20
2024-04-30T06:18:36.245Z,62.14
2024-04-30T06:21:31.766Z,60.81
2024-04-30T06:24:05.097Z,59.94
2024-04-30T06:26:58.203Z,58.72
2024-04-30T06:29:25.053Z,57.21
2024-04-30T06:31:52.205Z,55.77
2024-04-30T06:34:47.340Z,54.22
2024-04-30T06:37:28.970Z,55.54
2024-04-30T06:40:06.525Z,55.08
2024-04-30T06:42:35.002Z,53.04
2024-04-30T06:45:02.188Z,53.74
2024-04-30T06:47:33.319Z,53.14
2024-04-30T06:50:04.850Z,52.39
2024-04-30T06:52:49.225Z,52.40
2024-04-30T06:55:27.666Z,52.07
2024-04-30T06:57:55.129Z,51.09
2024-04-30T07:00:22.000Z,50.16
2024-04-30T07:02:48.953Z,49.27
2024-04-30T07:05:16.187Z,49.04
2024-04-30T07:07:45.706Z,49.00
2024-04-30T07:10:13.719Z,48.68
2024-04-30T07:12:55.297Z,48.39
2024-04-30T07:15:22.173Z,47.66
2024-04-30T07:17:49.288Z,48.00
2024-04-30T07:20:26.936Z,47.29
2024-04-30T07:22:53.692Z,46.17
2024-04-30T07:25:20.506Z,46.25
2024-04-30T07:27:52.571Z,45.77
2024-04-30T07:30:19.516Z,46.69
2024-04-30T07:32:46.568Z,46.51
2024-04-30T07:35:13.612Z,47.06
2024-04-30T07:37:44.796Z,45.35
2024-04-30T07:40:37.130Z,45.68
2024-04-30T07:43:05.329Z,44.54
2024-04-30T07:45:32.263Z,44.75
2024-04-30T07:47:59.137Z,43.80
2024-04-30T07:50:28.150Z,43.92
2024-04-30T07:52:55.098Z,42.45
2024-04-30T07:55:24.363Z,43.08
2024-04-30T07:58:07.721Z,43.16
2024-04-30T08:00:41.236Z,42.76
2024-04-30T08:03:08.310Z,42.63
2024-04-30T08:05:42.961Z,41.89
2024-04-30T08:08:31.387Z,42.07
2024-04-30T08:11:01.452Z,41.81
2024-04-30T08:13:28.477Z,41.53
2024-04-30T08:15:55.718Z,41.42
2024-04-30T08:18:25.461Z,40.51
2024-04-30T08:20:52.672Z,40.99
2024-04-30T08:23:25.420Z,42.12
2024-04-30T08:25:55.156Z,41.64
2024-04-30T08:28:22.016Z,41.98
2024-04-30T08:30:58.004Z,42.77
2024-04-30T08:33:27.512Z,42.69
2024-04-30T08:36:06.978Z,43.07
2024-04-30T08:38:34.166Z,45.05
2024-04-30T08:41:01.081Z,45.16
2024-04-30T08:44:15.206Z,44.16
2024-04-30T08:46:45.222Z,44.09
2024-04-30T08:49:38.041Z,44.27
2024-04-30T08:52:10.325Z,43.33
2024-04-30T08:54:39.870Z,43.88
2024-04-30T08:57:38.446Z,43.83
2024-04-30T09:00:06.229Z,43.27
2024-04-30T09:02:38.198Z,44.22
2024-04-30T09:05:05.730Z,43.62
2024-04-30T09:07:34.859Z,44.02
2024-04-30T09:10:05.416Z,45.62
2024-04-30T09:12:32.876Z,45.72
2024-04-30T09:15:01.953Z,45.37
2024-04-30T09:17:30.733Z,45.68
2024-04-30T09:20:12.581Z,45.99
2024-04-30T09:22:57.960Z,43.30
2024-04-30T09:25:36.380Z,43.91
2024-04-30T09:28:21.992Z,42.45
2024-04-30T09:31:00.229Z,42.25
2024-04-30T09:33:29.077Z,42.56
2024-04-30T09:36:27.756Z,41.35
2024-04-30T09:38:54.866Z,40.01
2024-04-30T09:41:28.393Z,42.11
2024-04-30T09:44:00.498Z,40.98
2024-04-30T09:46:28.232Z,40.70
2024-04-30T09:48:58.077Z,42.38
2024-04-30T09:51:30.019Z,43.48
2024-04-30T09:53:58.907Z,42.20
2024-04-30T09:56:40.496Z,41.95
2024-04-30T09:59:07.543Z,41.82
2024-04-30T10:01:35.631Z,42.04
2024-04-30T10:04:12.894Z,40.34
2024-04-30T10:06:42.804Z,40.77
2024-04-30T10:09:12.862Z,41.29
2024-04-30T10:11:47.563Z,39.65
2024-04-30T10:14:32.491Z,38.90
2024-04-30T10:17:01.069Z,39.16
2024-04-30T10:19:31.902Z,40.05
2024-04-30T10:22:22.029Z,40.97
2024-04-30T10:24:49.905Z,40.19
2024-04-30T10:27:24.180Z,40.35
2024-04-30T10:29:51.490Z,39.56
2024-04-30T10:32:21.815Z,38.94
2024-04-30T10:35:07.302Z,39.90
2024-04-30T10:37:37.451Z,41.16
2024-04-30T10:40:30.146Z,41.57
2024-04-30T10:42:59.040Z,39.64
2024-04-30T10:45:26.001Z,39.84
2024-04-30T10:47:54.845Z,38.24
2024-04-30T10:50:21.997Z,39.81
2024-04-30T10:52:54.692Z,40.26
2024-04-30T10:55:22.415Z,39.61
2024-04-30T10:57:52.558Z,40.67
2024-04-30T11:00:23.102Z,39.42
2024-04-30T11:02:57.190Z,38.44
2024-04-30T11:05:28.586Z,38.15
2024-04-30T11:07:59.610Z,38.14
2024-04-30T11:10:31.036Z,39.83
2024-04-30T11:13:16.831Z,38.43
2024-04-30T11:15:43.743Z,37.48
2024-04-30T11:18:10.760Z,35.77
2024-04-30T11:20:51.047Z,36.41
2024-04-30T11:23:17.884Z,36.31
2024-04-30T11:25:44.848Z,36.25
2024-04-30T11:28:19.179Z,37.05
2024-04-30T11:30:53.436Z,37.29
2024-04-30T11:33:20.320Z,37.16
2024-04-30T11:35:49.886Z,37.31
2024-04-30T11:38:23.331Z,36.51
2024-04-30T11:40:55.206Z,38.11
2024-04-30T11:43:25.372Z,39.32
2024-04-30T11:45:53.690Z,38.80
2024-04-30T11:48:20.866Z,38.06
2024-04-30T11:50:47.861Z,39.78
2024-04-30T11:53:29.726Z,40.29
2024-04-30T11:56:05.380Z,41.75
2024-04-30T11:58:33.088Z,40.19
2024-04-30T12:01:00.172Z,40.40
2024-04-30T12:03:29.608Z,37.50
2024-04-30T12:06:19.486Z,40.14
2024-04-30T12:08:48.749Z,40.87
2024-04-30T12:11:15.780Z,41.30
2024-04-30T12:13:42.774Z,40.97
2024-04-30T12:16:11.965Z,39.94
2024-04-30T12:18:39.300Z,40.81
2024-04-30T12:21:06.194Z,42.49
2024-04-30T12:23:43.626Z,42.10
2024-04-30T12:26:11.503Z,43.47
2024-04-30T12:28:38.452Z,42.95
2024-04-30T12:31:10.062Z,43.89
2024-04-30T12:33:40.685Z,43.55
2024-04-30T12:36:07.776Z,42.10
2024-04-30T12:38:34.658Z,43.37
2024-04-30T12:41:04.871Z,43.73
2024-04-30T12:43:38.526Z,43.37
2024-04-30T12:46:06.250Z,41.95
2024-04-30T12:48:33.306Z,43.31
2024-04-30T12:51:00.354Z,42.72
2024-04-30T12:53:27.449Z,44.11
2024-04-30T12:55:54.388Z,43.69
2024-04-30T12:58:28.268Z,43.02
2024-04-30T13:00:59.594Z,42.36
2024-04-30T13:03:26.797Z,44.06
2024-04-30T13:05:56.953Z,42.56
2024-04-30T13:08:32.040Z,42.51
2024-04-30T13:11:04.661Z,43.38
2024-04-30T13:13:36.360Z,42.46
2024-04-30T13:16:16.844Z,40.53
2024-04-30T13:18:59.712Z,39.48
2024-04-30T13:21:32.141Z,39.90
2024-04-30T13:24:04.535Z,38.80
2024-04-30T13:26:31.598Z,39.27
2024-04-30T13:29:11.666Z,37.57
2024-04-30T13:31:44.213Z,36.51
2024-04-30T13:34:14.434Z,36.74
2024-04-30T13:36:47.861Z,36.03
2024-04-30T13:39:18.019Z,36.28
2024-04-30T13:41:44.977Z,35.40
2024-04-30T13:44:15.137Z,36.30
2024-04-30T13:46:42.215Z,36.33
2024-04-30T13:49:09.149Z,35.50
2024-04-30T13:51:49.887Z,34.63
2024-04-30T13:54:16.827Z,33.07
2024-04-30T13:56:47.988Z,33.54
2024-04-30T13:59:21.975Z,35.67
2024-04-30T14:01:49.349Z,34.44
2024-04-30T14:04:16.935Z,35.25
2024-04-30T14:06:44.294Z,34.33
2024-04-30T14:09:15.401Z,35.24
2024-04-30T14:11:44.617Z,35.99
2024-04-30T14:14:15.812Z,36.16
2024-04-30T14:17:03.885Z,35.16
2024-04-30T14:20:01.786Z,33.88
2024-04-30T14:22:54.020Z,33.55
2024-04-30T14:26:06.523Z,33.38
2024-04-30T14:28:44.711Z,32.69
2024-04-30T14:31:13.819Z,32.47
2024-04-30T14:34:11.003Z,32.63
2024-04-30T14:36:40.214Z,33.06
2024-04-30T14:39:11.265Z,32.85
2024-04-30T14:41:43.361Z,33.19
2024-04-30T14:44:12.435Z,33.22
2024-04-30T14:46:41.516Z,34.46
2024-04-30T14:49:08.536Z,35.11
2024-04-30T14:51:38.401Z,34.66
2024-04-30T14:54:06.319Z,34.85
2024-04-30T14:56:39.711Z,33.54
2024-04-30T14:59:06.980Z,33.21
2024-04-30T15:01:33.981Z,32.34
2024-04-30T15:04:01.312Z,33.56
2024-04-30T15:06:31.056Z,34.06
2024-04-30T15:08:57.886Z,31.94
2024-04-30T15:11:25.531Z,30.88
2024-04-30T15:13:53.291Z,31.30
2024-04-30T15:16:20.984Z,30.80
2024-04-30T15:18:49.959Z,31.89
2024-04-30T15:21:16.694Z,31.33
2024-04-30T15:23:44.741Z,31.40
2024-04-30T15:26:14.990Z,31.14
2024-04-30T15:28:43.344Z,31.20
2024-04-30T15:31:21.510Z,29.93
2024-04-30T15:33:48.784Z,33.62
2024-04-30T15:36:16.347Z,34.82
2024-04-30T15:38:46.704Z,35.20
2024-04-30T15:41:23.885Z,35.56
2024-04-30T15:43:52.178Z,35.01
2024-04-30T15:46:19.548Z,33.49
2024-04-30T15:48:46.585Z,33.89
2024-04-30T15:51:14.427Z,32.84
2024-04-30T15:53:42.185Z,32.83
2024-04-30T15:56:17.443Z,32.91
2024-04-30T15:58:46.760Z,32.78
2024-04-30T16:01:14.292Z,32.88
2024-04-30T16:03:41.435Z,33.62
2024-04-30T16:06:08.995Z,33.28
2024-04-30T16:08:39.030Z,33.54
2024-04-30T16:11:10.525Z,32.73
2024-04-30T16:13:40.200Z,33.45
2024-04-30T16:16:15.967Z,34.04
2024-04-30T16:18:46.310Z,33.79
2024-04-30T16:21:13.802Z,33.85
2024-04-30T16:23:40.648Z,33.33
2024-04-30T16:26:08.868Z,33.64
2024-04-30T16:28:36.442Z,34.20
2024-04-30T16:31:03.991Z,34.11
2024-04-30T16:33:31.322Z,34.38
2024-04-30T16:35:59.779Z,35.30
2024-04-30T16:38:26.554Z,35.56
2024-04-30T16:40:53.435Z,35.91
2024-04-30T16:43:22.987Z,36.08
2024-04-30T16:45:50.738Z,36.19
2024-04-30T16:48:18.939Z,35.41
2024-04-30T16:50:45.861Z,34.99
2024-04-30T16:53:12.801Z,34.67
2024-04-30T16:55:39.554Z,35.31
2024-04-30T17:00:37.290Z,35.18
2024-04-30T17:03:05.160Z,35.49
2024-04-30T17:05:33.050Z,35.71
2024-04-30T17:08:00.088Z,36.31
2024-04-30T17:10:27.194Z,36.29
2024-04-30T17:12:55.223Z,36.17
2024-04-30T17:15:25.884Z,36.24
2024-04-30T17:17:52.751Z,36.27
2024-04-30T17:20:19.581Z,35.19
2024-04-30T17:22:48.662Z,35.57
2024-04-30T17:25:15.912Z,35.45
2024-04-30T17:27:45.920Z,35.75
2024-04-30T17:30:14.574Z,35.17
2024-04-30T17:32:43.933Z,35.03
2024-04-30T17:35:13.717Z,35.41
2024-04-30T17:37:47.184Z,35.78
2024-04-30T17:40:38.416Z,35.36
2024-04-30T17:43:09.896Z,35.20
2024-04-30T17:45:36.830Z,36.01
2024-04-30T17:48:07.179Z,35.57
2024-04-30T17:50:34.736Z,35.84
2024-04-30T17:53:01.761Z,35.84
2024-04-30T17:55:33.094Z,35.67
2024-04-30T17:58:00.194Z,36.20
2024-04-30T18:00:36.300Z,36.44
2024-04-30T18:03:03.497Z,36.16
2024-04-30T18:05:37.250Z,35.65
2024-04-30T18:08:10.132Z,35.91
2024-04-30T18:10:49.460Z,35.94
2024-04-30T18:13:27.038Z,35.90
2024-04-30T18:15:53.945Z,36.24
2024-04-30T18:18:25.619Z,36.41
2024-04-30T18:20:53.253Z,38.75
2024-04-30T18:23:22.524Z,39.14
2024-04-30T18:25:54.596Z,39.62
2024-04-30T18:28:29.011Z,39.40
2024-04-30T18:30:56.165Z,40.28
2024-04-30T18:33:29.054Z,40.45
2024-04-30T18:36:04.892Z,40.13
2024-04-30T18:38:39.978Z,40.21
2024-04-30T18:41:17.600Z,39.90
2024-04-30T18:43:51.633Z,40.10
2024-04-30T18:46:24.677Z,40.54
2024-04-30T18:48:54.948Z,40.51
2024-04-30T18:51:31.052Z,40.47
2024-04-30T18:53:57.779Z,40.88
2024-04-30T18:56:24.691Z,41.22
2024-04-30T18:58:51.602Z,41.06
2024-04-30T19:01:18.824Z,41.84
2024-04-30T19:03:48.515Z,42.32
2024-04-30T19:06:24.252Z,42.83
2024-04-30T19:08:52.556Z,42.91
2024-04-30T19:11:22.627Z,43.39
2024-04-30T19:13:49.911Z,44.50
2024-04-30T19:16:20.541Z,44.76
2024-04-30T19:18:48.175Z,44.33
2024-04-30T19:21:15.323Z,44.57
2024-04-30T19:23:43.391Z,44.37
2024-04-30T19:26:18.106Z,45.33
2024-04-30T19:28:47.719Z,45.53
2024-04-30T19:31:18.773Z,45.07
2024-04-30T19:33:46.903Z,45.61
2024-04-30T19:36:22.001Z,47.82
2024-04-30T19:38:49.486Z,47.55
2024-04-30T19:41:19.501Z,48.13
2024-04-30T19:43:46.445Z,48.05
2024-04-30T19:46:15.144Z,48.86
2024-04-30T19:48:42.760Z,49.46
2024-04-30T19:51:09.815Z,49.29
2024-04-30T19:53:36.651Z,48.73
2024-04-30T19:56:03.497Z,49.51
2024-04-30T19:58:30.644Z,49.56
2024-04-30T20:00:57.439Z,49.16
2024-04-30T20:03:26.795Z,48.36
2024-04-30T20:05:53.807Z,48.33
2024-04-30T20:08:20.681Z,48.58
2024-04-30T20:10:47.524Z,48.06
2024-04-30T20:13:14.380Z,49.06
2024-04-30T20:15:44.767Z,49.32
2024-04-30T20:18:12.455Z,49.58
2024-04-30T20:20:39.319Z,49.45
2024-04-30T20:23:06.154Z,49.67
2024-04-30T20:25:32.908Z,49.72
2024-04-30T20:28:00.898Z,49.99
2024-04-30T20:30:30.524Z,50.51
2024-04-30T20:32:57.569Z,50.71
2024-04-30T20:35:24.477Z,51.73
2024-04-30T20:37:51.326Z,52.17
2024-04-30T20:40:18.417Z,53.10
2024-04-30T20:42:45.342Z,53.14
2024-04-30T20:45:13.271Z,53.50
2024-04-30T20:47:43.250Z,54.07
2024-04-30T20:50:10.242Z,54.69
2024-04-30T20:52:37.073Z,56.05
2024-04-30T20:55:04.187Z,56.38
2024-04-30T20:57:31.108Z,56.12
2024-04-30T21:00:00.693Z,56.94
2024-04-30T21:02:30.144Z,56.66
2024-04-30T21:04:57.070Z,56.02
2024-04-30T21:07:24.937Z,55.47
2024-04-30T21:09:51.891Z,56.24
2024-04-30T21:12:18.865Z,55.83
2024-04-30T21:14:49.104Z,56.01
2024-04-30T21:17:15.960Z,56.67
2024-04-30T21:19:42.923Z,56.59
2024-04-30T21:22:10.434Z,56.57
2024-04-30T21:24:39.471Z,56.38
2024-04-30T21:27:06.586Z,57.08
2024-04-30T21:29:34.587Z,57.56
2024-04-30T21:32:06.040Z,58.07
2024-04-30T21:34:33.139Z,57.88
2024-04-30T21:37:01.996Z,57.86
2024-04-30T21:39:29.089Z,57.72
2024-04-30T21:41:59.444Z,58.45
2024-04-30T21:44:26.397Z,58.15
2024-04-30T21:46:53.096Z,58.13
2024-04-30T21:49:19.963Z,57.84
2024-04-30T21:51:49.273Z,59.03
2024-04-30T21:54:16.089Z,58.92
2024-04-30T21:56:42.824Z,60.52
2024-04-30T21:59:09.677Z,60.68
2024-04-30T22:01:36.623Z,61.13
2024-04-30T22:04:04.978Z,61.72
2024-04-30T22:06:32.405Z,61.84
2024-04-30T22:08:59.446Z,62.08
2024-04-30T22:11:26.317Z,61.63
2024-04-30T22:13:53.279Z,62.39
2024-04-30T22:16:20.583Z,62.36
2024-04-30T22:18:48.865Z,63.53
2024-04-30T22:21:19.193Z,63.90
2024-04-30T22:23:47.295Z,63.32
2024-04-30T22:26:16.220Z,63.56
2024-04-30T22:28:43.864Z,63.58
2024-04-30T22:31:10.626Z,62.67
2024-04-30T22:33:38.041Z,61.96
2024-04-30T22:36:05.655Z,61.96
2024-04-30T22:38:32.670Z,61.88
2024-04-30T22:40:59.391Z,63.10
2024-04-30T22:43:29.260Z,62.36
2024-04-30T22:45:57.618Z,62.48
2024-04-30T22:48:24.666Z,62.34
2024-04-30T22:50:51.673Z,62.36
2024-04-30T22:53:18.676Z,62.80
2024-04-30T22:55:45.493Z,62.45
2024-04-30T22:58:12.234Z,62.43
2024-04-30T23:00:39.756Z,62.43
2024-04-30T23:03:06.557Z,62.20
2024-04-30T23:05:33.344Z,62.64
2024-04-30T23:08:00.121Z,62.98
2024-04-30T23:10:27.152Z,63.26
2024-04-30T23:12:54.216Z,62.85
2024-04-30T23:15:21.154Z,63.73
2024-04-30T23:17:50.134Z,63.72
2024-04-30T23:20:18.344Z,64.21
2024-04-30T23:22:45.464Z,64.89
2024-04-30T23:25:12.399Z,64.11
2024-04-30T23:27:39.353Z,64.16
2024-04-30T23:30:07.918Z,64.70
2024-04-30T23:32:38.586Z,64.89
2024-04-30T23:35:05.441Z,64.71
2024-04-30T23:37:32.540Z,66.02
2024-04-30T23:39:59.404Z,65.57
2024-04-30T23:42:27.573Z,66.53
2024-04-30T23:44:54.450Z,66.89
2024-04-30T23:47:21.242Z,66.26
2024-04-30T23:49:48.966Z,65.24
2024-04-30T23:52:15.752Z,65.51
2024-04-30T23:54:43.774Z,65.87
2024-04-30T23:57:10.798Z,66.67
2024-04-30T23:59:37.644Z,67.16
